Utah County RPA :: 2FORTHALL

liberation: 2021-04-10  07:30     latitude: 43.143667     longitude: -112.396850 116 birds
# LOFT PRING MILES ARRIVAL SPEED ToWin
1 Peery Loft AU19-UVI-0187 216.607 2021-04-10 12:07:24.640 1374.238 00:00:00
2 Riley Allred AU20-UCA-157 212.688 2021-04-10 12:03:41.400 1367.720 00:01:18
3 Riley Allred AU20-UCA-153 212.688 2021-04-10 12:03:44.190 1367.488 00:01:21
4 Peery Loft AU20-UCA-0019 216.607 2021-04-10 12:13:22.584 1345.307 00:05:58
5 Peery Loft AU19-UCA-0901 216.607 2021-04-10 12:13:36.597 1344.199 00:06:12
6 Sherwood Loft AU20-NEBO-0648 220.182 2021-04-10 12:18:34.414 1342.882 00:06:35
7 Riley Allred AU20-UCA-107 212.688 2021-04-10 12:08:54.705 1342.114 00:06:31
8 Peery Loft AU19-UVI-0300 216.607 2021-04-10 12:17:34.776 1325.644 00:10:10
9 Dry Creek Lofts AU20-NEBO-340 218.158 2021-04-10 12:19:57.480 1324.186 00:10:34
10 Craig Allred AU20-UVI-361 212.688 2021-04-10 12:12:51.258 1323.407 00:10:28
11 Riley Allred AU19-UCA-940 212.688 2021-04-10 12:12:52.629 1323.300 00:10:29
12 Riley Allred AU20-UCA-170 212.688 2021-04-10 12:12:54.619 1323.145 00:10:31
13 Peery Loft AU20-UCA-0042 216.607 2021-04-10 12:18:15.680 1322.509 00:10:51
14 Sherwood Loft AU20-NEBO-0268 220.182 2021-04-10 12:23:38.955 1319.671 00:11:40
15 Craig Allred AU20-HARM-2617 212.688 2021-04-10 12:14:08.232 1317.431 00:11:45
16 Riley Allred AU20-UCA-139 212.688 2021-04-10 12:14:09.637 1317.323 00:11:46
17 Riley Allred AU20-UCA-119 212.688 2021-04-10 12:14:10.408 1317.263 00:11:47
18 Craig Allred AU19-JEDD-34815 212.688 2021-04-10 12:14:17.877 1316.687 00:11:54
19 Peery Loft AU19-UCA-0615 216.607 2021-04-10 12:20:19.594 1313.101 00:12:55
20 Peery Loft AU18-UCA-0522 216.607 2021-04-10 12:20:22.928 1312.850 00:12:58
21 Riley Allred AU20-UCA-101 212.688 2021-04-10 12:15:33.157 1310.901 00:13:10
22 Peery Loft AU20-UCA-0041 216.607 2021-04-10 12:21:24.292 1308.242 00:14:00
23 Craig Allred AU20-UVI-303 212.688 2021-04-10 12:16:08.494 1308.203 00:13:45
24 Peery Loft AU20-UCA-0007 216.607 2021-04-10 12:21:25.399 1308.159 00:14:01
25 Craig Allred AU19-JEDD-34811 212.688 2021-04-10 12:16:11.556 1307.970 00:13:48
26 Iron Will AU20-UCA-0246 216.244 2021-04-10 12:21:49.214 1304.191 00:14:52
27 Peery Loft AU20-UCA-0038 216.607 2021-04-10 12:22:20.391 1304.058 00:14:56
28 Peery Loft AU19-UCA-0910 216.607 2021-04-10 12:22:28.194 1303.478 00:15:04
29 Sherwood Loft AU20-NEBO-0279 220.182 2021-04-10 12:28:53.104 1296.553 00:16:54
30 Sherwood Loft AU13-UCA-0368 220.182 2021-04-10 12:28:57.971 1296.201 00:16:59
31 Riley Allred AU20-UCA-136 212.688 2021-04-10 12:19:09.438 1294.559 00:16:46
32 Riley Allred AU20-UCA-106 212.688 2021-04-10 12:19:13.364 1294.266 00:16:50
33 Craig Allred AU20-NLI-2015 212.688 2021-04-10 12:19:14.156 1294.207 00:16:51
34 Sherwood Loft AU19-AA-30796 220.182 2021-04-10 12:29:30.181 1293.878 00:17:31
35 Riley Allred AU20-UCA-116 212.688 2021-04-10 12:19:26.628 1293.278 00:17:03
36 Dry Creek Lofts AU20-NEBO-0357 218.158 2021-04-10 12:28:17.748 1287.173 00:18:54
37 Dry Creek Lofts AU-20-NEBO-323 218.158 2021-04-10 12:28:37.071 1285.785 00:19:13
38 Iron Will AU18-AA-4201 216.244 2021-04-10 12:26:21.502 1284.220 00:19:25
39 Dry Creek Lofts AU20-NEBO-301 218.158 2021-04-10 12:29:05.866 1283.722 00:19:42
40 Iron Will AU19-WGS-2597 216.244 2021-04-10 12:26:30.759 1283.551 00:19:34
41 Riley Allred AU19-JEDD-42112 212.688 2021-04-10 12:21:54.750 1282.341 00:19:31
42 Riley Allred AU20-UCA-148 212.688 2021-04-10 12:22:31.879 1279.628 00:20:08
43 Dry Creek Lofts AU20-NEBO-0332 218.158 2021-04-10 12:30:28.052 1277.870 00:21:04
44 Sherwood Loft IF20-FOYS-2275 220.182 2021-04-10 12:33:47.339 1275.623 00:21:48
45 Peery Loft AU20-UCA-0004 216.607 2021-04-10 12:28:58.718 1275.102 00:21:34
46 Riley Allred AU20-UCA-144 212.688 2021-04-10 12:23:37.088 1274.892 00:21:14
47 Craig Allred AU20-UVI-359 212.688 2021-04-10 12:23:39.031 1274.751 00:21:16
48 Sherwood Loft AU19-AA-30785 220.182 2021-04-10 12:34:34.873 1272.306 00:22:36
49 Peery Loft AU20-UCA-0034 216.607 2021-04-10 12:29:55.422 1271.084 00:22:31
50 Iron Will AU20-UCA-0222 216.244 2021-04-10 12:29:25.539 1271.064 00:22:29
51 Sherwood Loft AU19-JEDD-26356 220.182 2021-04-10 12:34:59.982 1270.560 00:23:01
52 Peery Loft AU20-UCA-0067 216.607 2021-04-10 12:30:48.233 1267.365 00:23:24
53 Iron Will AU20-UCA-0277 216.244 2021-04-10 12:30:30.157 1266.509 00:23:33
54 Iron Will AU20-UCA-0258 216.244 2021-04-10 12:30:58.646 1264.511 00:24:02
55 Dry Creek Lofts AU20-NEBO-349 218.158 2021-04-10 12:35:00.597 1258.839 00:25:37
56 Iron Will AU20-UCA-0262 216.244 2021-04-10 12:33:12.732 1255.191 00:26:16
57 Riley Allred AU20-UCA-166 212.688 2021-04-10 12:28:17.599 1254.910 00:25:54
58 Sherwood Loft AU20-UCA-0413 220.182 2021-04-10 12:40:10.992 1249.327 00:28:12
59 Craig Allred IF20-VDB-31 212.688 2021-04-10 12:29:48.652 1248.558 00:27:25
60 Riley Allred AU20-UCA-156 212.688 2021-04-10 12:31:32.592 1241.385 00:29:09
61 Riley Allred AU20-UCA-132 212.688 2021-04-10 12:32:57.578 1235.581 00:30:34
62 Iron Will AU20-UCA-0375 216.244 2021-04-10 12:42:28.107 1218.008 00:35:31
63 Iron Will AU20-UCA-0260 216.244 2021-04-10 12:42:30.465 1217.855 00:35:34
64 Sherwood Loft AU19-UCA-600 220.182 2021-04-10 12:49:08.057 1214.286 00:37:09
65 Iron Will AU20-UCA-0266 216.244 2021-04-10 12:43:27.635 1214.153 00:36:31
66 Iron Will AU20-UCA-0274 216.244 2021-04-10 12:43:28.800 1214.078 00:36:32
67 Sherwood Loft AU20-NEBO-0643 220.182 2021-04-10 12:49:12.626 1213.997 00:37:13
68 Craig Allred AU20-UVI-352 212.688 2021-04-10 12:38:35.261 1213.047 00:36:12
69 Craig Allred AU19-JEDD-34849 212.688 2021-04-10 12:38:40.984 1212.672 00:36:17
70 Sherwood Loft AU19-AA-18420 220.182 2021-04-10 12:52:38.255 1201.101 00:40:39
71 Craig Allred AU20-NLI-2413 212.688 2021-04-10 12:43:08.722 1195.391 00:40:45
72 Riley Allred AU19-JEDD-34842 212.688 2021-04-10 12:43:09.031 1195.372 00:40:46
73 Sherwood Loft AU20-NEBO-0254 220.182 2021-04-10 12:55:43.248 1189.732 00:43:44
74 Sherwood Loft AU20-UCA-0409 220.182 2021-04-10 12:55:54.276 1189.061 00:43:55
75 Sherwood Loft IF20-FOYS-2263 220.182 2021-04-10 12:56:20.161 1187.489 00:44:21
76 Riley Allred AU19-WFA-1368 212.688 2021-04-10 12:46:17.678 1183.489 00:43:54
77 Iron Will AU20-UCA-0201 216.244 2021-04-10 12:52:22.667 1180.569 00:45:26
78 Sherwood Loft AU19-AA-30783 220.182 2021-04-10 13:00:26.016 1172.763 00:48:27
79 Craig Allred AU19-MTZ-1321 212.688 2021-04-10 12:49:46.081 1170.634 00:47:23
80 Riley Allred AU20-UCA-147 212.688 2021-04-10 12:52:05.783 1162.172 00:49:42
81 Craig Allred AU20-UVI-366 212.688 2021-04-10 12:53:02.381 1158.778 00:50:39
82 Iron Will AU20-UCA-0204 216.244 2021-04-10 12:59:43.035 1154.290 00:52:46
83 Sherwood Loft AU20-NEBO-0278 220.182 2021-04-10 13:08:12.098 1145.826 00:56:13
84 Iron Will AU20-UCA-0314 216.244 2021-04-10 13:03:44.582 1140.366 00:56:48
85 Craig Allred AU20-HARM-1695 212.688 2021-04-10 13:04:19.604 1119.657 01:01:56
86 Sherwood Loft AU18-UCA-0686 220.182 2021-04-10 13:16:51.462 1117.232 01:04:52
87 Craig Allred AU20-NLI-2503 212.688 2021-04-10 13:05:24.010 1116.074 01:03:00
88 Iron Will AU20-UCA-0290 216.244 2021-04-10 13:15:06.290 1102.822 01:08:10
89 Riley Allred AU20-UCA-102 212.688 2021-04-10 13:20:39.571 1067.506 01:18:16
90 Riley Allred AU19-UCA-959 212.688 2021-04-10 13:24:12.800 1056.796 01:21:49
91 Riley Allred AU20-UCA-127 212.688 2021-04-10 13:24:33.901 1055.748 01:22:10
92 Craig Allred AU20-NLI-2417 212.688 2021-04-10 13:24:38.261 1055.532 01:22:15
93 Sherwood Loft AU19-AA-30719 220.182 2021-04-10 13:47:55.568 1025.387 01:35:56
94 Riley Allred AU20-UCA-151 212.688 2021-04-10 13:36:37.415 1021.023 01:34:14
95 Iron Will AU20-UCA-0333 216.244 2021-04-10 13:43:01.925 1020.259 01:36:05
96 Iron Will AU20-UCA-0369 216.244 2021-04-10 14:03:35.915 966.948 01:56:39
97 Dry Creek Lofts AU20-NEBO-327 218.158 2021-04-10 14:13:25.796 951.735 02:04:02
98 Sherwood Loft AU19-AA-30702 220.182 2021-04-10 14:17:58.488 949.863 02:05:59
99 Sherwood Loft AU18-UCA-0681 220.182 2021-04-10 14:20:07.310 944.891 02:08:08
100 Sherwood Loft AU19-AA-18442 220.182 2021-04-10 14:43:00.922 894.934 02:31:02
101 Riley Allred AU19-JEDD-34848 212.688 2021-04-10 14:50:25.662 849.927 02:48:02
102 Iron Will AU20-UCA-0261 216.244 2021-04-10 15:06:23.231 833.917 02:59:27
103 Riley Allred AU20-UCA-161 212.688 2021-04-10 15:07:17.379 818.587 03:04:54
104 Sherwood Loft AU20-UCA-0475 220.182 2021-04-10 15:26:23.126 813.460 03:14:24
105 Iron Will AU20-UCA-0328 216.244 2021-04-10 15:42:12.574 773.226 03:35:16
106 Riley Allred AU19-JEDD-42113 212.688 2021-04-10 15:58:12.249 736.577 03:55:49
Craig Allred AU20-NLI-2419 0 0000-00-00 00:00:00.000 0.000 00:00:00
Dry Creek Lofts AU20-NEBO-311 0 0000-00-00 00:00:00.000 0.000 00:00:00
Iron Will AU20-UCA-0245 0 0000-00-00 00:00:00.000 0.000 00:00:00
Sherwood Loft AU18-UCA-0634 0 0000-00-00 00:00:00.000 0.000 00:00:00
Sherwood Loft AU18-UCA-671 0 0000-00-00 00:00:00.000 0.000 00:00:00
Sherwood Loft AU19-AA-30754 0 0000-00-00 00:00:00.000 0.000 00:00:00
Sherwood Loft AU20-NEBO-0218 0 0000-00-00 00:00:00.000 0.000 00:00:00
Sherwood Loft AU20-NEBO-0255 0 0000-00-00 00:00:00.000 0.000 00:00:00
Sherwood Loft IF20-FOYS-2230 0 0000-00-00 00:00:00.000 0.000 00:00:00
Sherwood Loft IF20-FOYS-2254 0 0000-00-00 00:00:00.000 0.000 00:00:00